createdAt,value
2023-03-31T00:00:34.754Z,36.17
2023-03-31T00:03:02.464Z,35.97
2023-03-31T00:05:29.314Z,36.19
2023-03-31T00:08:01.259Z,35.54
2023-03-31T00:10:28.893Z,35.63
2023-03-31T00:12:55.661Z,35.68
2023-03-31T00:15:22.355Z,35.75
2023-03-31T00:17:48.990Z,37.35
2023-03-31T00:20:15.897Z,36.60
2023-03-31T00:22:46.831Z,36.38
2023-03-31T00:25:14.034Z,36.77
2023-03-31T00:27:44.357Z,37.40
2023-03-31T00:30:12.379Z,37.73
2023-03-31T00:32:39.230Z,37.94
2023-03-31T00:35:05.909Z,37.54
2023-03-31T00:37:33.837Z,37.96
2023-03-31T00:40:00.672Z,36.79
2023-03-31T00:42:27.779Z,37.27
2023-03-31T00:45:12.876Z,37.46
2023-03-31T00:47:40.923Z,38.13
2023-03-31T00:50:15.005Z,38.48
2023-03-31T00:52:41.992Z,38.06
2023-03-31T00:55:10.958Z,37.36
2023-03-31T00:57:41.745Z,37.41
2023-03-31T01:00:16.009Z,37.14
2023-03-31T01:03:00.399Z,37.81
2023-03-31T01:05:34.487Z,38.27
2023-03-31T01:08:02.450Z,38.73
2023-03-31T01:10:29.826Z,38.54
2023-03-31T01:12:57.486Z,39.48
2023-03-31T01:15:24.186Z,39.10
2023-03-31T01:17:52.544Z,38.31
2023-03-31T01:20:26.282Z,37.97
2023-03-31T01:23:03.120Z,37.52
2023-03-31T01:25:50.387Z,37.85
2023-03-31T01:28:32.067Z,38.41
2023-03-31T01:31:37.462Z,38.38
2023-03-31T01:34:16.126Z,38.70
2023-03-31T01:36:56.135Z,38.98
2023-03-31T01:39:41.295Z,39.04
2023-03-31T01:42:12.523Z,38.65
2023-03-31T01:44:42.962Z,38.74
2023-03-31T01:47:14.386Z,39.10
2023-03-31T01:49:47.865Z,38.07
2023-03-31T01:52:32.434Z,38.50
2023-03-31T01:55:04.284Z,38.15
2023-03-31T01:57:30.875Z,37.79
2023-03-31T01:59:57.465Z,38.22
2023-03-31T02:02:28.088Z,38.50
2023-03-31T02:05:00.823Z,38.39
2023-03-31T02:07:31.989Z,39.05
2023-03-31T02:10:00.590Z,38.22
2023-03-31T02:12:28.808Z,38.10
2023-03-31T02:14:57.077Z,37.81
2023-03-31T02:17:30.628Z,38.16
2023-03-31T02:19:59.365Z,38.48
2023-03-31T02:22:29.331Z,38.40
2023-03-31T02:24:56.408Z,37.77
2023-03-31T02:27:27.489Z,39.74
2023-03-31T02:29:55.541Z,39.35
2023-03-31T02:32:32.231Z,40.27
2023-03-31T02:34:59.917Z,39.72
2023-03-31T02:37:27.418Z,40.41
2023-03-31T02:39:55.857Z,39.98
2023-03-31T02:42:23.062Z,41.00
2023-03-31T02:44:51.930Z,41.06
2023-03-31T02:47:21.777Z,42.44
2023-03-31T02:49:54.610Z,42.51
2023-03-31T02:52:24.432Z,42.95
2023-03-31T02:55:15.389Z,44.44
2023-03-31T02:57:58.372Z,44.46
2023-03-31T03:00:34.167Z,43.68
2023-03-31T03:03:14.462Z,42.05
2023-03-31T03:05:45.940Z,42.23
2023-03-31T03:08:55.736Z,43.40
2023-03-31T03:11:42.391Z,43.30
2023-03-31T03:14:27.968Z,44.30
2023-03-31T03:17:27.239Z,43.15
2023-03-31T03:19:54.894Z,44.19
2023-03-31T03:22:21.746Z,45.93
2023-03-31T03:24:49.236Z,45.53
2023-03-31T03:27:16.102Z,45.05
2023-03-31T03:29:43.220Z,45.36
2023-03-31T03:32:10.368Z,46.75
2023-03-31T03:34:37.268Z,46.62
2023-03-31T03:37:05.764Z,46.07
2023-03-31T03:39:32.388Z,45.53
2023-03-31T03:41:59.010Z,46.19
2023-03-31T03:44:25.708Z,47.11
2023-03-31T03:46:52.374Z,46.94
2023-03-31T03:49:19.030Z,46.99
2023-03-31T03:51:45.761Z,46.59
2023-03-31T03:54:12.463Z,46.69
2023-03-31T03:56:39.002Z,47.60
2023-03-31T03:59:05.653Z,46.47
2023-03-31T04:01:32.369Z,46.12
2023-03-31T04:03:59.008Z,45.41
2023-03-31T04:06:25.998Z,45.79
2023-03-31T04:08:52.686Z,45.50
2023-03-31T04:11:19.659Z,45.35
2023-03-31T04:13:46.994Z,44.35
2023-03-31T04:16:14.266Z,44.53
2023-03-31T04:18:42.841Z,44.28
2023-03-31T04:21:12.300Z,44.27
2023-03-31T04:23:46.356Z,44.49
2023-03-31T04:26:13.581Z,44.95
2023-03-31T04:28:43.044Z,44.81
2023-03-31T04:31:15.493Z,44.21
2023-03-31T04:33:46.228Z,44.48
2023-03-31T04:36:19.104Z,44.91
2023-03-31T04:38:47.015Z,45.33
2023-03-31T04:41:14.012Z,45.35
2023-03-31T04:43:40.641Z,45.29
2023-03-31T04:46:07.756Z,47.32
2023-03-31T04:48:34.599Z,46.03
2023-03-31T04:51:01.412Z,44.82
2023-03-31T04:53:28.037Z,45.07
2023-03-31T04:55:54.859Z,44.90
2023-03-31T04:58:21.513Z,44.61
2023-03-31T05:00:49.350Z,45.30
2023-03-31T05:03:16.032Z,45.03
2023-03-31T05:05:42.865Z,45.86
2023-03-31T05:08:09.625Z,45.56
2023-03-31T05:10:36.265Z,45.92
2023-03-31T05:13:03.043Z,45.45
2023-03-31T05:15:29.772Z,45.59
2023-03-31T05:17:58.141Z,44.70
2023-03-31T05:20:24.765Z,44.42
2023-03-31T05:22:53.455Z,44.56
2023-03-31T05:25:20.048Z,44.84
2023-03-31T05:27:51.013Z,44.98
2023-03-31T05:30:18.156Z,44.97
2023-03-31T05:32:44.808Z,45.59
2023-03-31T05:35:11.460Z,45.16
2023-03-31T05:37:38.443Z,45.04
2023-03-31T05:40:05.934Z,44.43
2023-03-31T05:42:32.608Z,45.21
2023-03-31T05:44:59.258Z,44.95
2023-03-31T05:47:27.144Z,45.04
2023-03-31T05:49:53.869Z,44.74
2023-03-31T05:52:20.560Z,44.42
2023-03-31T05:54:47.272Z,43.28
2023-03-31T05:57:13.990Z,43.30
2023-03-31T05:59:42.214Z,43.25
2023-03-31T06:02:12.815Z,42.44
2023-03-31T06:04:39.905Z,43.28
2023-03-31T06:07:06.552Z,43.28
2023-03-31T06:09:33.202Z,42.96
2023-03-31T06:11:59.929Z,42.59
2023-03-31T06:14:27.451Z,42.33
2023-03-31T06:16:56.742Z,42.60
2023-03-31T06:19:25.601Z,42.36
2023-03-31T06:21:52.354Z,42.20
2023-03-31T06:24:18.988Z,42.10
2023-03-31T06:26:45.595Z,42.07
2023-03-31T06:29:12.238Z,42.41
2023-03-31T06:31:39.013Z,42.63
2023-03-31T06:34:06.661Z,42.81
2023-03-31T06:36:33.306Z,42.04
2023-03-31T06:38:59.878Z,41.51
2023-03-31T06:41:26.896Z,41.87
2023-03-31T06:43:53.478Z,41.40
2023-03-31T06:46:20.158Z,41.35
2023-03-31T06:48:47.075Z,40.90
2023-03-31T06:51:13.756Z,41.53
2023-03-31T06:53:40.380Z,40.81
2023-03-31T06:56:07.658Z,40.17
2023-03-31T06:58:34.606Z,40.07
2023-03-31T07:01:05.612Z,40.20
2023-03-31T07:03:32.988Z,39.90
2023-03-31T07:05:59.713Z,40.43
2023-03-31T07:08:26.381Z,39.81
2023-03-31T07:10:57.904Z,40.06
2023-03-31T07:13:25.487Z,40.04
2023-03-31T07:15:52.379Z,39.63
2023-03-31T07:18:19.984Z,39.82
2023-03-31T07:20:50.627Z,39.37
2023-03-31T07:23:17.589Z,38.89
2023-03-31T07:25:45.509Z,38.96
2023-03-31T07:28:12.214Z,39.01
2023-03-31T07:30:39.906Z,38.54
2023-03-31T07:33:07.472Z,37.69
2023-03-31T07:35:34.412Z,37.42
2023-03-31T07:38:01.127Z,36.96
2023-03-31T07:40:28.665Z,37.49
2023-03-31T07:42:55.600Z,36.68
2023-03-31T07:45:23.090Z,36.94
2023-03-31T07:47:50.333Z,36.46
2023-03-31T07:50:18.298Z,36.12
2023-03-31T07:52:47.570Z,35.19
2023-03-31T07:55:14.752Z,34.47
2023-03-31T07:57:42.320Z,33.78
2023-03-31T08:00:12.281Z,34.07
2023-03-31T08:02:40.095Z,34.08
2023-03-31T08:05:07.673Z,33.58
2023-03-31T08:07:34.939Z,33.22
2023-03-31T08:10:03.269Z,32.95
2023-03-31T08:12:29.938Z,32.40
2023-03-31T08:14:57.558Z,32.46
2023-03-31T08:17:24.225Z,31.92
2023-03-31T08:19:52.123Z,31.87
2023-03-31T08:22:18.812Z,32.41
2023-03-31T08:24:45.427Z,32.15
2023-03-31T08:27:12.571Z,33.21
2023-03-31T08:29:39.413Z,32.51
2023-03-31T08:32:07.288Z,33.11
2023-03-31T08:34:34.580Z,32.55
2023-03-31T08:37:01.208Z,32.44
2023-03-31T08:39:27.807Z,32.37
2023-03-31T08:42:00.229Z,32.35
2023-03-31T08:44:33.223Z,32.83
2023-03-31T08:47:02.575Z,32.96
2023-03-31T08:49:32.618Z,32.60
2023-03-31T08:52:01.864Z,32.64
2023-03-31T08:54:38.481Z,32.85
2023-03-31T08:57:11.367Z,33.26
2023-03-31T08:59:39.152Z,32.35
2023-03-31T09:02:24.665Z,33.19
2023-03-31T09:05:07.075Z,33.31
2023-03-31T09:07:34.899Z,32.68
2023-03-31T09:10:01.470Z,32.73
2023-03-31T09:12:28.046Z,32.58
2023-03-31T09:15:05.214Z,32.43
2023-03-31T09:17:40.485Z,32.08
2023-03-31T09:20:13.501Z,31.71
2023-03-31T09:22:44.102Z,31.54
2023-03-31T09:25:18.917Z,31.12
2023-03-31T09:27:47.928Z,30.15
2023-03-31T09:30:20.622Z,29.68
2023-03-31T09:32:49.310Z,29.97
2023-03-31T09:35:18.114Z,29.89
2023-03-31T09:37:44.686Z,30.18
2023-03-31T09:40:16.163Z,28.64
2023-03-31T09:42:42.986Z,28.28
2023-03-31T09:45:16.957Z,29.62
2023-03-31T09:47:46.316Z,29.84
2023-03-31T09:50:13.252Z,29.30
2023-03-31T09:52:41.504Z,28.45
2023-03-31T09:55:31.956Z,27.78
2023-03-31T09:58:06.554Z,27.80
2023-03-31T10:00:34.076Z,28.13
2023-03-31T10:03:07.845Z,27.43
2023-03-31T10:05:36.662Z,27.55
2023-03-31T10:08:30.278Z,27.42
2023-03-31T10:10:56.989Z,27.47
2023-03-31T10:13:29.512Z,28.04
2023-03-31T10:16:03.352Z,27.46
2023-03-31T10:18:34.642Z,27.18
2023-03-31T10:21:02.249Z,27.71
2023-03-31T10:23:30.326Z,28.29
2023-03-31T10:25:57.202Z,27.60
2023-03-31T10:28:24.149Z,27.96
2023-03-31T10:30:56.177Z,28.33
2023-03-31T10:33:25.771Z,27.79
2023-03-31T10:35:57.561Z,27.24
2023-03-31T10:38:32.063Z,27.00
2023-03-31T10:40:59.951Z,27.17
2023-03-31T10:43:33.398Z,28.11
2023-03-31T10:46:00.563Z,27.97
2023-03-31T10:48:29.113Z,27.82
2023-03-31T10:50:59.720Z,27.94
2023-03-31T10:53:28.404Z,28.64
2023-03-31T10:56:13.764Z,28.55
2023-03-31T10:58:40.671Z,28.99
2023-03-31T11:01:23.197Z,28.25
2023-03-31T11:03:49.935Z,28.47
2023-03-31T11:06:36.921Z,28.27
2023-03-31T11:09:03.904Z,27.49
2023-03-31T11:11:36.663Z,27.83
2023-03-31T11:14:22.910Z,27.89
2023-03-31T11:16:49.551Z,27.46
2023-03-31T11:19:25.019Z,27.42
2023-03-31T11:21:51.572Z,27.69
2023-03-31T11:24:18.153Z,27.92
2023-03-31T11:26:50.638Z,27.16
2023-03-31T11:29:17.267Z,27.96
2023-03-31T11:31:43.976Z,28.11
2023-03-31T11:34:23.017Z,27.14
2023-03-31T11:37:08.191Z,27.47
2023-03-31T11:39:40.895Z,27.12
2023-03-31T11:42:20.305Z,27.01
2023-03-31T11:44:53.101Z,27.27
2023-03-31T11:47:21.579Z,27.30
2023-03-31T11:49:53.662Z,27.41
2023-03-31T11:52:49.681Z,27.58
2023-03-31T11:55:21.835Z,26.92
2023-03-31T11:57:59.193Z,26.41
2023-03-31T12:00:48.827Z,26.76
2023-03-31T12:03:24.350Z,27.63
2023-03-31T12:05:58.982Z,27.12
2023-03-31T12:08:44.519Z,26.31
2023-03-31T12:11:14.996Z,26.23
2023-03-31T12:14:00.463Z,26.16
2023-03-31T12:16:37.411Z,26.09
2023-03-31T12:19:11.463Z,25.96
2023-03-31T12:21:39.768Z,25.21
2023-03-31T12:24:08.394Z,25.51
2023-03-31T12:26:45.787Z,25.75
2023-03-31T12:29:24.501Z,26.07
2023-03-31T12:31:53.401Z,26.35
2023-03-31T12:34:21.524Z,26.51
2023-03-31T12:36:56.594Z,25.94
2023-03-31T12:39:32.264Z,26.17
2023-03-31T12:42:17.661Z,25.89
2023-03-31T12:45:02.900Z,25.04
2023-03-31T12:47:36.144Z,24.42
2023-03-31T12:50:02.842Z,23.92
2023-03-31T12:52:32.627Z,24.27
2023-03-31T12:55:17.708Z,23.42
2023-03-31T12:57:44.421Z,22.95
2023-03-31T13:00:27.337Z,23.84
2023-03-31T13:03:14.882Z,23.69
2023-03-31T13:05:44.661Z,22.82
2023-03-31T13:08:11.282Z,22.40
2023-03-31T13:10:58.567Z,22.28
2023-03-31T13:13:25.925Z,22.88
2023-03-31T13:15:56.918Z,22.67
2023-03-31T13:18:23.979Z,22.41
2023-03-31T13:21:00.345Z,22.45
2023-03-31T13:23:30.240Z,22.75
2023-03-31T13:25:57.165Z,22.19
2023-03-31T13:28:24.146Z,22.10
2023-03-31T13:30:55.181Z,21.81
2023-03-31T13:33:32.546Z,22.40
2023-03-31T13:36:14.905Z,23.05
2023-03-31T13:39:00.912Z,22.75
2023-03-31T13:41:32.903Z,23.07
2023-03-31T13:43:59.469Z,22.77
2023-03-31T13:46:26.201Z,21.69
2023-03-31T13:48:58.999Z,21.56
2023-03-31T13:51:25.769Z,21.31
2023-03-31T13:53:54.609Z,21.68
2023-03-31T13:56:36.571Z,22.01
2023-03-31T13:59:12.384Z,22.21
2023-03-31T14:01:54.195Z,22.92
2023-03-31T14:04:20.972Z,21.60
2023-03-31T14:06:49.960Z,21.18
2023-03-31T14:09:29.009Z,21.09
2023-03-31T14:11:56.667Z,21.56
2023-03-31T14:14:25.016Z,21.73
2023-03-31T14:16:54.208Z,20.65
2023-03-31T14:19:33.094Z,20.85
2023-03-31T14:22:19.172Z,21.17
2023-03-31T14:24:59.772Z,21.36
2023-03-31T14:27:36.707Z,21.52
2023-03-31T14:30:04.245Z,21.27
2023-03-31T14:32:53.928Z,21.00
2023-03-31T14:35:26.716Z,20.94
2023-03-31T14:37:54.618Z,20.21
2023-03-31T14:40:21.886Z,20.56
2023-03-31T14:42:51.165Z,20.38
2023-03-31T14:45:25.398Z,20.35
2023-03-31T14:48:11.959Z,20.55
2023-03-31T14:50:38.678Z,20.78
2023-03-31T14:53:13.876Z,20.81
2023-03-31T14:55:54.833Z,20.86
2023-03-31T14:58:27.902Z,21.23
2023-03-31T15:00:54.926Z,21.13
2023-03-31T15:03:21.639Z,20.68
2023-03-31T15:05:50.306Z,21.16
2023-03-31T15:08:20.215Z,21.35
2023-03-31T15:10:54.003Z,21.23
2023-03-31T15:13:23.300Z,21.43
2023-03-31T15:15:50.099Z,21.57
2023-03-31T15:18:17.367Z,21.74
2023-03-31T15:20:44.822Z,21.85
2023-03-31T15:23:25.216Z,21.84
2023-03-31T15:25:54.653Z,22.45
2023-03-31T15:28:22.938Z,22.83
2023-03-31T15:30:54.319Z,23.34
2023-03-31T15:33:31.976Z,23.71
2023-03-31T15:35:58.749Z,24.45
2023-03-31T15:38:27.522Z,23.95
2023-03-31T15:40:56.092Z,23.96
2023-03-31T15:43:30.660Z,24.57
2023-03-31T15:45:58.242Z,24.69
2023-03-31T15:48:33.963Z,24.67
2023-03-31T15:51:04.151Z,25.06
2023-03-31T15:53:32.510Z,24.94
2023-03-31T15:56:00.090Z,24.68
2023-03-31T15:58:46.197Z,25.13
2023-03-31T16:01:15.988Z,25.09
2023-03-31T16:03:45.748Z,24.83
2023-03-31T16:06:19.057Z,24.92
2023-03-31T16:08:48.516Z,25.18
2023-03-31T16:11:20.997Z,25.22
2023-03-31T16:13:53.470Z,25.00
2023-03-31T16:16:22.951Z,25.05
2023-03-31T16:18:51.098Z,24.89
2023-03-31T16:21:24.668Z,25.19
2023-03-31T16:23:53.958Z,25.48
2023-03-31T16:26:24.580Z,25.02
2023-03-31T16:28:52.783Z,25.43
2023-03-31T16:31:28.602Z,25.28
2023-03-31T16:33:57.151Z,25.34
2023-03-31T16:36:23.808Z,25.57
2023-03-31T16:38:57.939Z,25.61
2023-03-31T16:41:27.153Z,25.63
2023-03-31T16:43:54.238Z,25.39
2023-03-31T16:46:21.722Z,25.55
2023-03-31T16:48:49.145Z,25.68
2023-03-31T16:51:17.172Z,25.60
2023-03-31T16:53:44.215Z,26.21
2023-03-31T16:56:13.016Z,26.63
2023-03-31T16:58:40.236Z,26.92
2023-03-31T17:01:07.749Z,27.55
2023-03-31T17:03:35.267Z,27.27
2023-03-31T17:06:05.729Z,27.39
2023-03-31T17:08:32.579Z,27.41
2023-03-31T17:11:07.581Z,26.80
2023-03-31T17:13:35.805Z,27.73
2023-03-31T17:18:49.534Z,28.06
2023-03-31T17:21:18.407Z,28.15
2023-03-31T17:23:46.582Z,28.30
2023-03-31T17:26:13.727Z,27.65
2023-03-31T17:28:41.103Z,28.20
2023-03-31T17:31:11.381Z,29.64
2023-03-31T17:33:38.343Z,30.58
2023-03-31T17:36:05.389Z,29.51
2023-03-31T17:38:32.643Z,29.90
2023-03-31T17:41:10.082Z,30.26
2023-03-31T17:43:38.022Z,30.48
2023-03-31T17:46:11.896Z,30.68
2023-03-31T17:48:39.699Z,30.48
2023-03-31T17:51:08.552Z,30.75
2023-03-31T17:53:35.634Z,30.84
2023-03-31T17:56:03.888Z,30.27
2023-03-31T17:58:31.158Z,30.70
2023-03-31T18:00:59.545Z,30.90
2023-03-31T18:03:29.363Z,30.00
2023-03-31T18:05:56.016Z,30.40
2023-03-31T18:08:23.162Z,30.30
2023-03-31T18:10:50.558Z,29.97
2023-03-31T18:13:17.504Z,29.79
2023-03-31T18:15:51.344Z,31.14
2023-03-31T18:18:18.724Z,30.86
2023-03-31T18:20:45.371Z,31.03
2023-03-31T18:23:12.146Z,30.78
2023-03-31T18:25:38.998Z,32.13
2023-03-31T18:28:05.780Z,32.52
2023-03-31T18:30:32.559Z,31.87
2023-03-31T18:32:59.664Z,31.71
2023-03-31T18:35:27.441Z,32.60
2023-03-31T18:37:54.147Z,32.94
2023-03-31T18:40:20.938Z,32.31
2023-03-31T18:42:48.380Z,32.34
2023-03-31T18:45:15.099Z,32.49
2023-03-31T18:47:42.191Z,31.92
2023-03-31T18:50:09.395Z,31.86
2023-03-31T18:52:36.229Z,31.66
2023-03-31T18:55:03.569Z,32.12
2023-03-31T18:57:30.780Z,32.14
2023-03-31T18:59:57.560Z,32.00
2023-03-31T19:02:24.292Z,31.80
2023-03-31T19:04:50.983Z,31.95
2023-03-31T19:07:17.710Z,32.05
2023-03-31T19:09:44.495Z,32.11
2023-03-31T19:12:11.894Z,31.76
2023-03-31T19:14:38.800Z,32.32
2023-03-31T19:17:05.422Z,32.58
2023-03-31T19:19:32.581Z,32.72
2023-03-31T19:21:59.202Z,33.33
2023-03-31T19:24:25.897Z,33.14
2023-03-31T19:26:52.661Z,33.07
2023-03-31T19:29:19.344Z,33.00
2023-03-31T19:31:47.647Z,33.25
2023-03-31T19:34:16.558Z,33.12
2023-03-31T19:36:44.197Z,33.01
2023-03-31T19:39:11.772Z,33.36
2023-03-31T19:41:38.557Z,33.29
2023-03-31T19:44:05.334Z,32.85
2023-03-31T19:46:32.144Z,33.30
2023-03-31T19:48:59.196Z,33.59
2023-03-31T19:51:26.009Z,33.34
2023-03-31T19:53:53.679Z,33.53
2023-03-31T19:56:21.477Z,33.61
2023-03-31T19:58:50.179Z,33.51
2023-03-31T20:01:21.762Z,33.92
2023-03-31T20:03:53.532Z,34.12
2023-03-31T20:06:21.556Z,33.91
2023-03-31T20:08:52.194Z,34.00
2023-03-31T20:11:18.956Z,33.63
2023-03-31T20:13:45.769Z,33.78
2023-03-31T20:16:13.868Z,33.69
2023-03-31T20:18:40.729Z,33.66
2023-03-31T20:21:09.637Z,34.17
2023-03-31T20:23:38.037Z,34.20
2023-03-31T20:26:05.352Z,34.24
2023-03-31T20:28:34.061Z,34.10
2023-03-31T20:31:05.957Z,34.41
2023-03-31T20:33:33.865Z,33.93
2023-03-31T20:36:05.224Z,34.30
2023-03-31T20:38:32.970Z,34.11
2023-03-31T20:41:00.092Z,34.14
2023-03-31T20:43:27.261Z,34.75
2023-03-31T20:46:04.420Z,34.96
2023-03-31T20:48:31.194Z,35.11
2023-03-31T20:50:58.209Z,34.80
2023-03-31T20:53:24.886Z,35.01
2023-03-31T20:55:51.699Z,34.52
2023-03-31T20:58:18.448Z,34.92
2023-03-31T21:00:45.247Z,34.77
2023-03-31T21:03:12.220Z,35.08
2023-03-31T21:05:43.620Z,34.99
2023-03-31T21:08:10.855Z,35.59
2023-03-31T21:10:42.034Z,36.14
2023-03-31T21:13:10.035Z,35.59
2023-03-31T21:15:37.177Z,35.59
2023-03-31T21:18:04.760Z,35.46
2023-03-31T21:20:32.752Z,34.94
2023-03-31T21:23:01.039Z,35.16
2023-03-31T21:25:27.808Z,34.97
2023-03-31T21:27:55.465Z,34.99
2023-03-31T21:30:22.372Z,35.07
2023-03-31T21:32:49.049Z,36.04
2023-03-31T21:35:15.923Z,37.17
2023-03-31T21:37:44.890Z,37.29
2023-03-31T21:40:12.011Z,36.67
2023-03-31T21:42:38.728Z,36.24
2023-03-31T21:45:05.555Z,35.75
2023-03-31T21:47:32.848Z,35.78
2023-03-31T21:50:00.448Z,36.27
2023-03-31T21:52:27.829Z,37.12
2023-03-31T21:54:54.469Z,37.37
2023-03-31T21:57:21.361Z,37.64
2023-03-31T21:59:48.051Z,37.96
2023-03-31T22:02:14.679Z,37.72
2023-03-31T22:04:41.489Z,36.67
2023-03-31T22:07:08.088Z,36.31
2023-03-31T22:09:34.723Z,36.65
2023-03-31T22:12:02.362Z,36.25
2023-03-31T22:14:28.990Z,36.51
2023-03-31T22:16:55.554Z,35.54
2023-03-31T22:19:22.477Z,35.89
2023-03-31T22:21:50.086Z,36.07
2023-03-31T22:24:16.976Z,38.21
2023-03-31T22:26:43.645Z,36.99
2023-03-31T22:29:14.976Z,37.25
2023-03-31T22:31:41.984Z,36.23
2023-03-31T22:34:08.567Z,37.48
2023-03-31T22:36:35.544Z,37.01
2023-03-31T22:39:02.346Z,36.83
2023-03-31T22:41:29.140Z,36.67
2023-03-31T22:43:55.964Z,37.01
2023-03-31T22:46:22.861Z,36.24
2023-03-31T22:48:50.364Z,36.00
2023-03-31T22:51:17.405Z,36.34
2023-03-31T22:53:44.036Z,36.35
2023-03-31T22:56:12.022Z,36.54
2023-03-31T22:58:38.800Z,36.02
2023-03-31T23:01:07.251Z,36.27
2023-03-31T23:03:34.173Z,37.50
2023-03-31T23:06:05.195Z,38.96
2023-03-31T23:08:33.385Z,37.17
2023-03-31T23:11:00.726Z,37.37
2023-03-31T23:13:28.001Z,37.84
2023-03-31T23:15:54.793Z,37.55
2023-03-31T23:18:22.484Z,37.04
2023-03-31T23:20:49.327Z,37.13
2023-03-31T23:23:16.025Z,37.80
2023-03-31T23:25:42.691Z,38.17
2023-03-31T23:28:09.259Z,37.57
2023-03-31T23:30:36.171Z,37.75
2023-03-31T23:33:02.759Z,38.42
2023-03-31T23:35:29.819Z,37.57
2023-03-31T23:37:56.842Z,38.28
2023-03-31T23:40:24.538Z,38.01
2023-03-31T23:42:51.198Z,38.21
2023-03-31T23:45:18.626Z,38.28
2023-03-31T23:47:45.517Z,38.20
2023-03-31T23:50:12.170Z,37.42
2023-03-31T23:52:38.863Z,38.20
2023-03-31T23:55:05.797Z,37.91
2023-03-31T23:57:32.555Z,37.95
2023-03-31T23:59:59.454Z,38.37
